createdAt,value
2023-04-21T00:00:01.134Z,79.69
2023-04-21T00:05:02.984Z,80.06
2023-04-21T00:10:07.354Z,79.42
2023-04-21T00:15:09.845Z,79.36
2023-04-21T00:20:11.935Z,79.79
2023-04-21T00:25:14.972Z,80.04
2023-04-21T00:30:16.768Z,79.94
2023-04-21T00:35:18.233Z,79.93
2023-04-21T00:40:20.459Z,79.44
2023-04-21T00:45:21.866Z,79.40
2023-04-21T00:50:23.554Z,79.70
2023-04-21T00:55:25.534Z,79.35
2023-04-21T01:00:27.049Z,79.50
2023-04-21T01:05:28.517Z,78.96
2023-04-21T01:10:30.044Z,79.15
2023-04-21T01:15:31.531Z,79.53
2023-04-21T01:20:33.140Z,78.91
2023-04-21T01:25:34.574Z,79.08
2023-04-21T01:30:36.029Z,79.06
2023-04-21T01:35:37.503Z,79.11
2023-04-21T01:40:41.835Z,79.25
2023-04-21T01:45:43.316Z,79.42
2023-04-21T01:50:44.805Z,79.13
2023-04-21T01:55:46.320Z,79.07
2023-04-21T02:00:47.805Z,79.21
2023-04-21T02:05:50.936Z,79.18
2023-04-21T02:10:52.370Z,78.93
2023-04-21T02:16:02.720Z,79.20
2023-04-21T02:21:13.993Z,79.32
2023-04-21T02:26:15.720Z,79.45
2023-04-21T02:31:18.771Z,79.40
2023-04-21T02:36:20.780Z,80.05
2023-04-21T02:41:23.281Z,79.91
2023-04-21T02:46:24.754Z,79.88
2023-04-21T02:51:26.856Z,79.89
2023-04-21T02:56:28.326Z,79.94
2023-04-21T03:01:29.754Z,80.11
2023-04-21T03:06:33.153Z,79.92
2023-04-21T03:11:34.577Z,80.24
2023-04-21T03:16:36.021Z,80.07
2023-04-21T03:21:39.009Z,80.15
2023-04-21T03:26:41.065Z,80.46
2023-04-21T03:31:42.513Z,80.54
2023-04-21T03:36:44.040Z,80.31
2023-04-21T03:41:45.621Z,80.44
2023-04-21T03:46:47.050Z,80.49
2023-04-21T03:51:48.510Z,80.30
2023-04-21T03:56:49.918Z,80.11
2023-04-21T04:01:51.348Z,80.44
2023-04-21T04:06:52.810Z,80.42
2023-04-21T04:11:54.234Z,80.71
2023-04-21T04:16:55.660Z,80.99
2023-04-21T04:21:59.738Z,81.14
2023-04-21T04:27:02.981Z,81.04
2023-04-21T04:32:06.569Z,81.04
2023-04-21T04:37:11.133Z,80.88
2023-04-21T04:42:12.669Z,81.07
2023-04-21T04:47:14.109Z,80.95
2023-04-21T04:52:15.647Z,81.24
2023-04-21T04:57:17.070Z,80.94
2023-04-21T05:02:18.693Z,81.09
2023-04-21T05:07:20.809Z,80.73
2023-04-21T05:12:22.322Z,80.69
2023-04-21T05:17:23.807Z,80.32
2023-04-21T05:22:25.919Z,79.05
2023-04-21T05:27:27.518Z,77.39
2023-04-21T05:32:29.503Z,75.56
2023-04-21T05:37:31.122Z,73.58
2023-04-21T05:42:32.569Z,69.41
2023-04-21T05:47:34.010Z,72.27
2023-04-21T05:52:37.198Z,70.88
2023-04-21T05:57:38.698Z,70.63
2023-04-21T06:02:40.366Z,68.20
2023-04-21T06:07:42.004Z,67.90
2023-04-21T06:12:43.413Z,66.90
2023-04-21T06:17:44.902Z,67.35
2023-04-21T06:22:46.393Z,65.01
2023-04-21T06:27:48.084Z,66.49
2023-04-21T06:32:49.644Z,66.42
2023-04-21T06:37:51.118Z,65.10
2023-04-21T06:42:52.539Z,63.25
2023-04-21T06:47:53.962Z,65.31
2023-04-21T06:52:55.528Z,63.61
2023-04-21T06:57:57.055Z,62.67
2023-04-21T07:02:58.606Z,62.99
2023-04-21T07:08:00.382Z,62.06
2023-04-21T07:13:01.817Z,62.78
2023-04-21T07:18:03.402Z,61.19
2023-04-21T07:23:04.989Z,59.47
2023-04-21T07:28:06.641Z,61.37
2023-04-21T07:33:09.055Z,60.09
2023-04-21T07:38:10.653Z,60.45
2023-04-21T07:43:12.087Z,58.76
2023-04-21T07:48:13.628Z,58.51
2023-04-21T07:53:15.107Z,58.66
2023-04-21T07:58:16.957Z,58.67
2023-04-21T08:03:18.696Z,58.11
2023-04-21T08:08:21.971Z,54.75
2023-04-21T08:13:25.330Z,56.85
2023-04-21T08:18:26.820Z,56.78
2023-04-21T08:28:32.159Z,51.71
2023-04-21T08:33:33.579Z,53.55
2023-04-21T08:38:35.625Z,52.55
2023-04-21T08:43:37.140Z,52.38
2023-04-21T08:48:39.078Z,51.99
2023-04-21T08:53:41.423Z,50.78
2023-04-21T08:58:42.870Z,51.23
2023-04-21T09:03:44.502Z,51.07
2023-04-21T09:08:56.372Z,49.84
2023-04-21T09:13:58.454Z,50.65
2023-04-21T09:19:00.508Z,45.11
2023-04-21T09:24:05.903Z,49.13
2023-04-21T09:29:08.898Z,46.88
2023-04-21T09:34:26.940Z,48.77
2023-04-21T09:39:43.214Z,46.18
2023-04-21T09:44:59.601Z,44.52
2023-04-21T09:50:13.462Z,44.73
2023-04-21T09:55:16.043Z,46.83
2023-04-21T10:00:22.116Z,45.41
2023-04-21T10:05:23.701Z,43.70
2023-04-21T10:10:33.338Z,44.19
2023-04-21T10:15:38.761Z,43.69
2023-04-21T10:20:58.380Z,41.76
2023-04-21T10:26:15.212Z,40.67
2023-04-21T10:31:21.601Z,40.78
2023-04-21T10:36:25.255Z,41.48
2023-04-21T10:41:34.026Z,41.67
2023-04-21T10:46:36.525Z,39.93
2023-04-21T10:52:00.075Z,38.58
2023-04-21T10:57:01.642Z,38.01
2023-04-21T11:02:04.999Z,37.20
2023-04-21T11:07:17.512Z,35.75
2023-04-21T11:12:18.972Z,36.32
2023-04-21T11:17:21.878Z,34.96
2023-04-21T11:22:24.800Z,34.28
2023-04-21T11:27:28.028Z,34.04
2023-04-21T11:32:29.623Z,35.94
2023-04-21T11:37:31.880Z,33.54
2023-04-21T11:42:33.472Z,33.91
2023-04-21T11:47:34.975Z,34.61
2023-04-21T11:52:37.724Z,34.69
2023-04-21T11:57:40.577Z,33.96
2023-04-21T12:02:43.393Z,34.31
2023-04-21T12:07:47.959Z,34.21
2023-04-21T12:12:49.445Z,34.87
2023-04-21T12:17:53.312Z,35.77
2023-04-21T12:22:56.412Z,35.14
2023-04-21T12:27:59.240Z,35.90
2023-04-21T12:33:01.263Z,35.56
2023-04-21T12:38:02.909Z,35.11
2023-04-21T12:43:04.430Z,34.83
2023-04-21T12:48:06.675Z,35.65
2023-04-21T12:53:08.177Z,37.13
2023-04-21T12:58:09.764Z,35.41
2023-04-21T13:03:11.282Z,34.72
2023-04-21T13:08:12.953Z,33.92
2023-04-21T13:13:14.457Z,34.84
2023-04-21T13:18:15.966Z,33.43
2023-04-21T13:23:17.435Z,34.17
2023-04-21T13:28:19.621Z,34.37
2023-04-21T13:33:21.507Z,35.43
2023-04-21T13:38:22.979Z,36.05
2023-04-21T13:43:24.755Z,34.46
2023-04-21T13:48:26.700Z,34.51
2023-04-21T13:53:28.113Z,34.58
2023-04-21T13:58:30.847Z,33.16
2023-04-21T14:03:32.455Z,32.61
2023-04-21T14:08:34.077Z,32.63
2023-04-21T14:13:44.670Z,32.54
2023-04-21T14:18:49.444Z,33.04
2023-04-21T14:23:51.039Z,32.33
2023-04-21T14:28:52.474Z,32.44
2023-04-21T14:33:53.948Z,32.78
2023-04-21T14:38:55.686Z,32.83
2023-04-21T14:43:57.847Z,33.61
2023-04-21T14:48:59.411Z,33.45
2023-04-21T14:54:00.912Z,32.96
2023-04-21T14:59:02.499Z,32.55
2023-04-21T15:04:04.267Z,33.45
2023-04-21T15:09:06.009Z,34.37
2023-04-21T15:14:07.512Z,35.15
2023-04-21T15:19:09.166Z,35.60
2023-04-21T15:24:10.833Z,35.31
2023-04-21T15:29:12.257Z,34.94
2023-04-21T15:34:13.689Z,34.83
2023-04-21T15:39:15.262Z,34.94
2023-04-21T15:44:16.748Z,35.67
2023-04-21T15:49:18.198Z,35.92
2023-04-21T15:54:19.730Z,36.19
2023-04-21T15:59:22.426Z,35.01
2023-04-21T16:04:25.650Z,35.61
2023-04-21T16:09:27.283Z,36.32
2023-04-21T16:14:36.217Z,36.42
2023-04-21T16:19:45.580Z,37.12
2023-04-21T16:24:47.237Z,37.26
2023-04-21T16:29:50.217Z,37.56
2023-04-21T16:34:51.748Z,38.19
2023-04-21T16:39:53.255Z,38.25
2023-04-21T16:44:58.934Z,38.38
2023-04-21T16:50:00.479Z,38.58
2023-04-21T16:55:02.005Z,38.90
2023-04-21T17:00:07.029Z,39.20
2023-04-21T17:05:09.048Z,39.17
2023-04-21T17:10:10.784Z,39.31
2023-04-21T17:15:12.214Z,39.38
2023-04-21T17:20:14.709Z,40.03
2023-04-21T17:25:16.168Z,40.12
2023-04-21T17:30:18.933Z,40.70
2023-04-21T17:35:20.393Z,41.26
2023-04-21T17:40:22.239Z,41.55
2023-04-21T17:45:23.701Z,42.22
2023-04-21T17:50:27.402Z,42.73
2023-04-21T17:55:28.965Z,43.74
2023-04-21T18:00:34.380Z,44.42
2023-04-21T18:05:35.849Z,44.36
2023-04-21T18:10:37.695Z,44.02
2023-04-21T18:15:39.332Z,43.76
2023-04-21T18:20:40.810Z,43.39
2023-04-21T18:25:43.172Z,43.58
2023-04-21T18:30:44.909Z,43.70
2023-04-21T18:35:46.719Z,44.17
2023-04-21T18:40:48.201Z,45.01
2023-04-21T18:45:49.623Z,45.38
2023-04-21T18:50:51.138Z,45.55
2023-04-21T18:55:53.017Z,45.72
2023-04-21T19:00:54.759Z,46.57
2023-04-21T19:05:56.260Z,46.80
2023-04-21T19:10:57.827Z,47.15
2023-04-21T19:15:59.365Z,47.27
2023-04-21T19:21:00.869Z,47.64
2023-04-21T19:26:05.100Z,47.83
2023-04-21T19:31:06.983Z,47.57
2023-04-21T19:36:09.398Z,47.93
2023-04-21T19:41:10.893Z,48.38
2023-04-21T19:46:12.390Z,48.37
2023-04-21T19:51:13.853Z,48.55
2023-04-21T19:56:15.652Z,48.85
2023-04-21T20:01:17.112Z,48.98
2023-04-21T20:06:19.567Z,48.77
2023-04-21T20:11:21.404Z,49.09
2023-04-21T20:16:23.852Z,49.47
2023-04-21T20:21:25.615Z,50.18
2023-04-21T20:26:27.152Z,50.19
2023-04-21T20:31:28.977Z,50.63
2023-04-21T20:36:30.526Z,50.79
2023-04-21T20:41:32.742Z,50.81
2023-04-21T20:46:34.224Z,51.07
2023-04-21T20:51:41.899Z,51.23
2023-04-21T20:56:43.341Z,51.26
2023-04-21T21:01:46.019Z,51.07
2023-04-21T21:06:47.504Z,50.83
2023-04-21T21:11:48.923Z,50.96
2023-04-21T21:16:54.286Z,51.30
2023-04-21T21:21:55.978Z,51.32
2023-04-21T21:26:58.118Z,51.60
2023-04-21T21:31:59.578Z,51.36
2023-04-21T21:37:01.047Z,51.70
2023-04-21T21:42:02.514Z,51.78
2023-04-21T21:47:04.256Z,51.69
2023-04-21T21:52:05.843Z,51.86
2023-04-21T21:57:07.279Z,52.27
2023-04-21T22:02:08.765Z,52.57
2023-04-21T22:07:10.515Z,52.88
2023-04-21T22:12:12.094Z,53.22
2023-04-21T22:17:14.421Z,53.61
2023-04-21T22:22:16.009Z,53.82
2023-04-21T22:27:17.577Z,53.88
2023-04-21T22:32:19.052Z,54.22
2023-04-21T22:37:20.468Z,54.11
2023-04-21T22:42:21.891Z,54.08
2023-04-21T22:47:23.732Z,54.05
2023-04-21T22:52:28.384Z,54.23
2023-04-21T22:57:29.829Z,54.62
2023-04-21T23:02:31.499Z,54.93
2023-04-21T23:07:33.323Z,55.15
2023-04-21T23:12:34.918Z,55.11
2023-04-21T23:17:36.408Z,55.37
2023-04-21T23:22:38.056Z,56.59
2023-04-21T23:27:39.479Z,57.12
2023-04-21T23:32:41.446Z,57.87
2023-04-21T23:37:43.098Z,58.56
2023-04-21T23:42:47.489Z,58.79
2023-04-21T23:47:49.297Z,58.69
2023-04-21T23:52:50.778Z,59.09
2023-04-21T23:57:52.195Z,59.45
